ftp/pub/mcmurdo/arrivalheights/2008/March/080324.txt
3/24/08
Time Wind Dir Wind Spd Wind Gust Hum In Humidity Temp In Temp Raw Barom Tot Rain
° kts kts % % °C °C mb mm
0:00 158 50 60 31 100 17.3 -9.5 953.11 0.00
0:20 167 51 56 25 100 17.3 -9.1 952.53 0.00
0:40 163 39 59 22 100 17.4 -8.8 953.41 0.00
1:00 179 56 63 26 100 17.2 -8.9 952.16 0.00
1:20 173 56 63 29 100 17.3 -8.7 952.94 0.00
1:40 165 50 60 30 100 17.7 -8.8 952.90 0.00
2:00 169 53 59 31 100 17.6 -8.8 952.70 0.00
2:20 164 49 60 29 100 17.4 -9.1 953.17 0.00
2:40 162 50 55 23 100 17.5 -8.9 953.51 0.00
3:00 168 47 47 21 100 17.5 -8.8 954.26 0.00
3:20 166 47 49 29 100 17.4 -8.8 954.12 0.00
3:40 166 37 49 32 100 17.4 -9.1 954.12 0.00
4:00 160 42 57 25 100 17.7 -9.1 953.78 0.00
4:20 157 38 43 22 100 17.9 -9.2 954.22 0.00
4:40 152 29 39 26 100 18.1 -9.1 954.12 0.00
5:00 158 46 63 29 100 18.1 -8.9 952.33 0.00
5:20 161 50 63 30 100 17.9 -8.9 952.36 0.00
5:40 175 56 70 31 100 17.6 -8.7 951.75 0.00
6:00 169 70 71 30 100 17.4 -9.2 951.62 0.00
6:20 136 51 56 23 100 17.5 -9.0 953.85 0.00
6:40 164 50 54 21 100 17.6 -9.3 953.88 0.00
7:00 156 44 46 29 100 17.5 -10.2 956.12 0.00
7:20 133 36 46 32 100 17.8 -11.6 956.66 0.00
7:40 138 40 53 25 100 18.2 -12.0 956.63 0.00
8:00 159 39 45 22 100 18.6 -11.8 956.86 0.00
8:20 149 43 47 27 100 18.6 -12.3 956.05 0.00
8:40 132 33 48 30 100 18.6 -12.0 956.56 0.00
9:00 142 50 61 31 100 18.6 -11.4 956.19 0.00
9:20 140 46 56 32 100 18.4 -10.8 956.56 0.00
9:40 150 36 50 24 100 18.6 -10.9 957.61 0.00
10:00 134 29 37 22 100 18.8 -12.6 958.32 0.00
10:20 149 35 49 29 100 18.8 -11.8 957.91 0.00
10:40 136 34 43 32 100 18.9 -12.6 958.63 0.00
11:00 141 33 47 27 100 19.2 -12.7 958.59 0.00
11:20 111 34 36 24 100 19.6 -13.1 959.98 0.00
11:40 102 27 30 25 100 19.9 -13.5 960.52 0.00
12:00 121 37 45 30 100 20.0 -13.1 960.42 0.00
12:20 136 36 49 32 100 20.2 -12.9 959.84 0.00
12:40 123 38 38 32 100 20.3 -12.6 960.42 0.00
13:00 121 35 37 23 100 20.3 -12.4 960.08 0.00
13:20 129 33 36 27 100 19.4 -12.5 960.39 0.00
13:40 126 39 42 31 100 19.4 -11.4 960.39 0.00
14:00 124 23 36 30 100 19.8 -11.7 960.86 0.00
14:20 124 27 39 26 100 20.2 -11.1 960.59 0.00
14:40 136 28 36 23 100 20.6 -11.3 960.39 0.00
15:00 134 30 44 28 100 20.6 -10.4 960.15 0.00
15:20 129 30 38 32 100 20.6 -10.2 959.84 0.00
15:40 155 33 50 33 100 20.6 -9.3 959.07 0.00
16:00 148 35 46 29 100 20.6 -9.9 959.40 0.00
16:20 158 47 52 24 100 20.7 -9.7 958.05 0.00
16:40 152 37 62 27 100 20.6 -9.3 958.79 0.00
17:00 145 50 56 29 100 20.3 -10.2 959.00 0.00
17:20 135 38 46 31 100 20.0 -9.4 959.84 0.00
17:40 159 41 47 32 100 19.9 -9.3 958.59 0.00
18:00 147 57 63 29 100 19.8 -10.3 957.95 0.00
18:20 152 59 74 23 100 19.7 -10.6 958.25 0.00
18:40 154 51 61 27 100 19.2 -10.8 958.39 0.00
19:00 154 48 54 29 100 18.9 -10.9 959.84 0.00
19:20 135 50 52 31 100 18.7 -10.8 960.62 0.00
19:40 136 35 57 31 100 18.6 -11.0 961.37 0.00
20:00 148 46 50 25 100 18.8 -11.1 961.50 0.00
20:20 138 44 56 22 100 18.9 -11.9 961.44 0.00
20:40 146 48 63 28 100 18.7 -11.2 961.13 0.00
21:00 145 30 46 30 100 18.6 -11.0 962.45 0.00
21:20 117 25 36 30 100 18.6 -10.8 964.38 0.00
21:40 135 33 33 26 100 19.1 -11.1 964.18 0.00
22:00 115 20 24 24 100 19.6 -11.5 965.09 0.00
22:20 99 19 24 27 100 19.9 -11.2 965.30 0.00
22:40 134 38 42 31 100 20.1 -10.7 964.45 0.00
23:00 90 19 29 32 100 20.2 -11.3 965.53 0.00
23:20 108 18 31 32 100 20.3 -8.5 965.26 0.00
23:40 106 24 35 27 100 20.7 -8.8 965.30 0.00


